sensor_id;sensor_type;location;lat;lon;timestamp;temperature;humidity
77052;SHT30;65980;44.898;8.602;2023-05-07T00:00:40;18.40;57.18
77052;SHT30;65980;44.898;8.602;2023-05-07T00:03:44;18.35;56.86
77052;SHT30;65980;44.898;8.602;2023-05-07T00:06:49;17.93;58.05
77052;SHT30;65980;44.898;8.602;2023-05-07T00:09:54;17.99;58.10
77052;SHT30;65980;44.898;8.602;2023-05-07T00:12:57;18.07;58.51
77052;SHT30;65980;44.898;8.602;2023-05-07T00:16:02;18.11;58.87
77052;SHT30;65980;44.898;8.602;2023-05-07T00:19:06;18.17;58.37
77052;SHT30;65980;44.898;8.602;2023-05-07T00:22:10;18.21;58.04
77052;SHT30;65980;44.898;8.602;2023-05-07T00:25:14;18.24;58.15
77052;SHT30;65980;44.898;8.602;2023-05-07T00:28:18;18.25;58.18
77052;SHT30;65980;44.898;8.602;2023-05-07T00:31:23;18.28;57.77
77052;SHT30;65980;44.898;8.602;2023-05-07T00:34:27;18.23;57.90
77052;SHT30;65980;44.898;8.602;2023-05-07T00:37:31;18.23;58.09
77052;SHT30;65980;44.898;8.602;2023-05-07T00:40:34;18.28;57.66
77052;SHT30;65980;44.898;8.602;2023-05-07T00:43:39;18.25;57.89
77052;SHT30;65980;44.898;8.602;2023-05-07T00:46:43;18.23;58.30
77052;SHT30;65980;44.898;8.602;2023-05-07T00:49:50;18.10;58.60
77052;SHT30;65980;44.898;8.602;2023-05-07T00:52:54;17.99;59.09
77052;SHT30;65980;44.898;8.602;2023-05-07T00:55:58;17.78;59.60
77052;SHT30;65980;44.898;8.602;2023-05-07T00:59:05;17.61;59.54
77052;SHT30;65980;44.898;8.602;2023-05-07T01:02:10;17.63;59.91
77052;SHT30;65980;44.898;8.602;2023-05-07T01:05:15;17.69;60.08
77052;SHT30;65980;44.898;8.602;2023-05-07T01:08:20;17.75;60.35
77052;SHT30;65980;44.898;8.602;2023-05-07T01:11:25;17.72;60.62
77052;SHT30;65980;44.898;8.602;2023-05-07T01:14:29;17.70;60.98
77052;SHT30;65980;44.898;8.602;2023-05-07T01:17:39;17.51;61.65
77052;SHT30;65980;44.898;8.602;2023-05-07T01:20:47;17.45;61.97
77052;SHT30;65980;44.898;8.602;2023-05-07T01:23:54;17.28;62.47
77052;SHT30;65980;44.898;8.602;2023-05-07T01:26:58;17.24;62.60
77052;SHT30;65980;44.898;8.602;2023-05-07T01:30:04;17.27;62.55
77052;SHT30;65980;44.898;8.602;2023-05-07T01:33:11;17.07;63.15
77052;SHT30;65980;44.898;8.602;2023-05-07T01:36:18;17.38;62.13
77052;SHT30;65980;44.898;8.602;2023-05-07T01:39:28;17.48;61.92
77052;SHT30;65980;44.898;8.602;2023-05-07T01:42:35;17.52;61.30
77052;SHT30;65980;44.898;8.602;2023-05-07T01:45:39;17.39;61.63
77052;SHT30;65980;44.898;8.602;2023-05-07T01:48:43;17.44;60.72
77052;SHT30;65980;44.898;8.602;2023-05-07T01:51:49;17.38;61.72
77052;SHT30;65980;44.898;8.602;2023-05-07T01:54:53;17.48;61.68
77052;SHT30;65980;44.898;8.602;2023-05-07T01:57:58;17.35;61.38
77052;SHT30;65980;44.898;8.602;2023-05-07T02:01:02;17.51;61.33
77052;SHT30;65980;44.898;8.602;2023-05-07T02:04:07;17.68;60.66
77052;SHT30;65980;44.898;8.602;2023-05-07T02:07:12;17.68;60.86
77052;SHT30;65980;44.898;8.602;2023-05-07T02:10:16;17.58;60.88
77052;SHT30;65980;44.898;8.602;2023-05-07T02:13:21;17.44;61.48
77052;SHT30;65980;44.898;8.602;2023-05-07T02:16:25;17.20;62.15
77052;SHT30;65980;44.898;8.602;2023-05-07T02:19:29;17.39;61.55
77052;SHT30;65980;44.898;8.602;2023-05-07T02:22:33;17.31;62.05
77052;SHT30;65980;44.898;8.602;2023-05-07T02:25:37;17.11;62.84
77052;SHT30;65980;44.898;8.602;2023-05-07T02:28:42;17.14;62.66
77052;SHT30;65980;44.898;8.602;2023-05-07T02:31:45;17.28;61.92
77052;SHT30;65980;44.898;8.602;2023-05-07T02:34:50;17.20;62.27
77052;SHT30;65980;44.898;8.602;2023-05-07T02:37:56;17.07;62.73
77052;SHT30;65980;44.898;8.602;2023-05-07T02:41:02;17.13;62.61
77052;SHT30;65980;44.898;8.602;2023-05-07T02:44:06;17.23;61.69
77052;SHT30;65980;44.898;8.602;2023-05-07T02:47:10;17.24;61.80
77052;SHT30;65980;44.898;8.602;2023-05-07T02:50:17;17.14;62.48
77052;SHT30;65980;44.898;8.602;2023-05-07T02:53:21;16.87;63.13
77052;SHT30;65980;44.898;8.602;2023-05-07T02:56:25;17.18;62.34
77052;SHT30;65980;44.898;8.602;2023-05-07T02:59:29;17.30;61.98
77052;SHT30;65980;44.898;8.602;2023-05-07T03:02:35;17.31;61.70
77052;SHT30;65980;44.898;8.602;2023-05-07T03:05:38;17.30;61.65
77052;SHT30;65980;44.898;8.602;2023-05-07T03:08:43;17.23;62.24
77052;SHT30;65980;44.898;8.602;2023-05-07T03:11:47;17.23;62.45
77052;SHT30;65980;44.898;8.602;2023-05-07T03:14:51;17.00;62.84
77052;SHT30;65980;44.898;8.602;2023-05-07T03:17:55;17.08;62.21
77052;SHT30;65980;44.898;8.602;2023-05-07T03:20:59;17.03;62.57
77052;SHT30;65980;44.898;8.602;2023-05-07T03:24:03;16.90;62.66
77052;SHT30;65980;44.898;8.602;2023-05-07T03:27:07;16.83;63.26
77052;SHT30;65980;44.898;8.602;2023-05-07T03:30:11;16.73;63.57
77052;SHT30;65980;44.898;8.602;2023-05-07T03:33:16;16.82;63.35
77052;SHT30;65980;44.898;8.602;2023-05-07T03:36:20;16.49;64.60
77052;SHT30;65980;44.898;8.602;2023-05-07T03:39:24;16.56;64.54
77052;SHT30;65980;44.898;8.602;2023-05-07T03:42:29;16.55;64.61
77052;SHT30;65980;44.898;8.602;2023-05-07T03:45:33;16.59;64.73
77052;SHT30;65980;44.898;8.602;2023-05-07T03:48:47;16.63;64.39
77052;SHT30;65980;44.898;8.602;2023-05-07T03:51:53;16.63;64.76
77052;SHT30;65980;44.898;8.602;2023-05-07T03:54:58;16.56;65.01
77052;SHT30;65980;44.898;8.602;2023-05-07T03:58:02;16.70;64.22
77052;SHT30;65980;44.898;8.602;2023-05-07T04:01:07;16.61;64.83
77052;SHT30;65980;44.898;8.602;2023-05-07T04:04:11;16.59;64.47
77052;SHT30;65980;44.898;8.602;2023-05-07T04:07:15;16.65;64.36
77052;SHT30;65980;44.898;8.602;2023-05-07T04:10:22;16.62;64.61
77052;SHT30;65980;44.898;8.602;2023-05-07T04:13:33;16.61;64.49
77052;SHT30;65980;44.898;8.602;2023-05-07T04:16:41;16.16;65.55
77052;SHT30;65980;44.898;8.602;2023-05-07T04:19:46;16.14;65.42
77052;SHT30;65980;44.898;8.602;2023-05-07T04:22:51;16.27;65.16
77052;SHT30;65980;44.898;8.602;2023-05-07T04:25:55;16.28;65.14
77052;SHT30;65980;44.898;8.602;2023-05-07T04:29:10;16.31;65.07
77052;SHT30;65980;44.898;8.602;2023-05-07T04:32:15;15.93;66.24
77052;SHT30;65980;44.898;8.602;2023-05-07T04:35:20;16.17;65.51
77052;SHT30;65980;44.898;8.602;2023-05-07T04:38:25;16.20;65.28
77052;SHT30;65980;44.898;8.602;2023-05-07T04:41:31;16.07;65.74
77052;SHT30;65980;44.898;8.602;2023-05-07T04:44:36;16.42;64.44
77052;SHT30;65980;44.898;8.602;2023-05-07T04:47:41;16.45;64.65
77052;SHT30;65980;44.898;8.602;2023-05-07T04:50:49;16.66;64.04
77052;SHT30;65980;44.898;8.602;2023-05-07T04:53:53;16.66;64.16
77052;SHT30;65980;44.898;8.602;2023-05-07T04:56:57;16.62;64.07
77052;SHT30;65980;44.898;8.602;2023-05-07T05:00:01;16.38;65.09
77052;SHT30;65980;44.898;8.602;2023-05-07T05:03:09;16.62;65.01
77052;SHT30;65980;44.898;8.602;2023-05-07T05:06:15;16.82;63.02
77052;SHT30;65980;44.898;8.602;2023-05-07T05:09:20;16.99;61.78
77052;SHT30;65980;44.898;8.602;2023-05-07T05:12:25;16.84;62.53
77052;SHT30;65980;44.898;8.602;2023-05-07T05:15:29;17.13;61.99
77052;SHT30;65980;44.898;8.602;2023-05-07T05:18:34;17.21;62.24
77052;SHT30;65980;44.898;8.602;2023-05-07T05:21:38;17.20;62.80
77052;SHT30;65980;44.898;8.602;2023-05-07T05:24:46;17.27;62.19
77052;SHT30;65980;44.898;8.602;2023-05-07T05:27:51;17.08;62.51
77052;SHT30;65980;44.898;8.602;2023-05-07T05:30:55;16.99;62.97
77052;SHT30;65980;44.898;8.602;2023-05-07T05:34:03;16.90;64.28
77052;SHT30;65980;44.898;8.602;2023-05-07T05:37:08;16.94;64.21
77052;SHT30;65980;44.898;8.602;2023-05-07T05:40:12;16.87;65.05
77052;SHT30;65980;44.898;8.602;2023-05-07T05:43:16;16.52;66.62
77052;SHT30;65980;44.898;8.602;2023-05-07T05:46:21;16.41;67.60
77052;SHT30;65980;44.898;8.602;2023-05-07T05:49:30;16.53;66.36
77052;SHT30;65980;44.898;8.602;2023-05-07T05:52:34;16.48;66.54
77052;SHT30;65980;44.898;8.602;2023-05-07T05:55:38;16.45;66.18
77052;SHT30;65980;44.898;8.602;2023-05-07T05:58:42;16.66;65.83
77052;SHT30;65980;44.898;8.602;2023-05-07T06:01:46;17.14;63.61
77052;SHT30;65980;44.898;8.602;2023-05-07T06:04:52;16.84;63.94
77052;SHT30;65980;44.898;8.602;2023-05-07T06:07:59;16.63;64.90
77052;SHT30;65980;44.898;8.602;2023-05-07T06:11:14;16.76;65.46
77052;SHT30;65980;44.898;8.602;2023-05-07T06:14:21;16.65;66.01
77052;SHT30;65980;44.898;8.602;2023-05-07T06:17:27;16.58;66.36
77052;SHT30;65980;44.898;8.602;2023-05-07T06:20:32;16.73;65.58
77052;SHT30;65980;44.898;8.602;2023-05-07T06:23:38;16.79;66.02
77052;SHT30;65980;44.898;8.602;2023-05-07T06:26:48;16.94;64.57
77052;SHT30;65980;44.898;8.602;2023-05-07T06:29:52;16.94;65.13
77052;SHT30;65980;44.898;8.602;2023-05-07T06:32:58;17.04;65.55
77052;SHT30;65980;44.898;8.602;2023-05-07T06:36:04;17.06;65.17
77052;SHT30;65980;44.898;8.602;2023-05-07T06:39:09;17.10;64.82
77052;SHT30;65980;44.898;8.602;2023-05-07T06:42:14;17.23;64.34
77052;SHT30;65980;44.898;8.602;2023-05-07T06:45:21;17.35;64.92
77052;SHT30;65980;44.898;8.602;2023-05-07T06:48:27;17.53;63.90
77052;SHT30;65980;44.898;8.602;2023-05-07T06:51:42;17.56;64.49
77052;SHT30;65980;44.898;8.602;2023-05-07T06:54:46;17.90;63.82
77052;SHT30;65980;44.898;8.602;2023-05-07T06:57:56;18.10;63.39
77052;SHT30;65980;44.898;8.602;2023-05-07T07:01:18;18.04;63.22
77052;SHT30;65980;44.898;8.602;2023-05-07T07:04:25;18.25;62.97
77052;SHT30;65980;44.898;8.602;2023-05-07T07:07:39;18.41;62.04
77052;SHT30;65980;44.898;8.602;2023-05-07T07:10:45;18.21;62.83
77052;SHT30;65980;44.898;8.602;2023-05-07T07:13:50;18.28;61.92
77052;SHT30;65980;44.898;8.602;2023-05-07T07:16:55;18.35;61.90
77052;SHT30;65980;44.898;8.602;2023-05-07T07:20:01;18.51;61.30
77052;SHT30;65980;44.898;8.602;2023-05-07T07:23:07;18.59;61.83
77052;SHT30;65980;44.898;8.602;2023-05-07T07:26:11;18.77;61.48
77052;SHT30;65980;44.898;8.602;2023-05-07T07:29:16;18.79;61.01
77052;SHT30;65980;44.898;8.602;2023-05-07T07:32:23;18.93;61.11
77052;SHT30;65980;44.898;8.602;2023-05-07T07:35:29;19.02;60.66
77052;SHT30;65980;44.898;8.602;2023-05-07T07:38:34;19.18;60.07
77052;SHT30;65980;44.898;8.602;2023-05-07T07:41:39;19.47;59.41
77052;SHT30;65980;44.898;8.602;2023-05-07T07:44:46;19.47;59.19
77052;SHT30;65980;44.898;8.602;2023-05-07T07:47:53;19.62;58.65
77052;SHT30;65980;44.898;8.602;2023-05-07T07:50:57;19.66;58.56
77052;SHT30;65980;44.898;8.602;2023-05-07T07:54:07;19.69;59.11
77052;SHT30;65980;44.898;8.602;2023-05-07T07:57:13;19.72;58.78
77052;SHT30;65980;44.898;8.602;2023-05-07T08:00:17;19.83;58.41
77052;SHT30;65980;44.898;8.602;2023-05-07T08:03:22;19.92;59.25
77052;SHT30;65980;44.898;8.602;2023-05-07T08:06:31;20.07;58.06
77052;SHT30;65980;44.898;8.602;2023-05-07T08:09:37;19.98;57.69
77052;SHT30;65980;44.898;8.602;2023-05-07T08:12:42;20.07;57.15
77052;SHT30;65980;44.898;8.602;2023-05-07T08:15:47;20.48;55.94
77052;SHT30;65980;44.898;8.602;2023-05-07T08:18:52;20.62;54.38
77052;SHT30;65980;44.898;8.602;2023-05-07T08:21:56;20.96;54.43
77052;SHT30;65980;44.898;8.602;2023-05-07T08:25:02;20.62;54.06
77052;SHT30;65980;44.898;8.602;2023-05-07T08:28:07;20.79;54.24
77052;SHT30;65980;44.898;8.602;2023-05-07T08:31:11;21.21;54.12
77052;SHT30;65980;44.898;8.602;2023-05-07T08:34:18;21.58;53.42
77052;SHT30;65980;44.898;8.602;2023-05-07T08:37:24;22.03;53.08
77052;SHT30;65980;44.898;8.602;2023-05-07T08:40:28;21.83;53.08
77052;SHT30;65980;44.898;8.602;2023-05-07T08:43:34;21.74;53.87
77052;SHT30;65980;44.898;8.602;2023-05-07T08:46:43;21.61;54.42
77052;SHT30;65980;44.898;8.602;2023-05-07T08:49:50;21.82;54.14
77052;SHT30;65980;44.898;8.602;2023-05-07T08:52:55;22.37;52.73
77052;SHT30;65980;44.898;8.602;2023-05-07T08:56:01;22.57;51.05
77052;SHT30;65980;44.898;8.602;2023-05-07T08:59:07;21.83;53.08
77052;SHT30;65980;44.898;8.602;2023-05-07T09:02:14;21.85;52.81
77052;SHT30;65980;44.898;8.602;2023-05-07T09:05:19;22.14;53.11
77052;SHT30;65980;44.898;8.602;2023-05-07T09:08:26;21.97;52.40
77052;SHT30;65980;44.898;8.602;2023-05-07T09:11:33;22.12;53.16
77052;SHT30;65980;44.898;8.602;2023-05-07T09:14:39;22.10;52.98
77052;SHT30;65980;44.898;8.602;2023-05-07T09:17:44;22.14;52.26
77052;SHT30;65980;44.898;8.602;2023-05-07T09:20:49;22.14;52.02
77052;SHT30;65980;44.898;8.602;2023-05-07T09:23:56;22.59;51.32
77052;SHT30;65980;44.898;8.602;2023-05-07T09:27:07;23.17;50.08
77052;SHT30;65980;44.898;8.602;2023-05-07T09:30:13;23.37;49.22
77052;SHT30;65980;44.898;8.602;2023-05-07T09:33:18;23.76;49.22
77052;SHT30;65980;44.898;8.602;2023-05-07T09:36:27;23.38;49.40
77052;SHT30;65980;44.898;8.602;2023-05-07T09:39:41;23.06;50.05
77052;SHT30;65980;44.898;8.602;2023-05-07T09:42:46;23.34;49.18
77052;SHT30;65980;44.898;8.602;2023-05-07T09:45:52;23.88;47.89
77052;SHT30;65980;44.898;8.602;2023-05-07T09:48:59;24.71;45.67
77052;SHT30;65980;44.898;8.602;2023-05-07T09:52:05;25.75;44.16
77052;SHT30;65980;44.898;8.602;2023-05-07T09:55:14;26.71;42.97
77052;SHT30;65980;44.898;8.602;2023-05-07T09:58:20;28.26;40.17
77052;SHT30;65980;44.898;8.602;2023-05-07T10:01:27;28.56;40.24
77052;SHT30;65980;44.898;8.602;2023-05-07T10:04:32;29.43;38.62
77052;SHT30;65980;44.898;8.602;2023-05-07T10:07:37;29.89;38.19
77052;SHT30;65980;44.898;8.602;2023-05-07T10:10:45;32.04;34.70
77052;SHT30;65980;44.898;8.602;2023-05-07T10:13:54;33.15;33.46
77052;SHT30;65980;44.898;8.602;2023-05-07T10:16:59;31.57;35.54
77052;SHT30;65980;44.898;8.602;2023-05-07T10:20:05;33.26;33.45
77052;SHT30;65980;44.898;8.602;2023-05-07T10:23:12;32.28;34.60
77052;SHT30;65980;44.898;8.602;2023-05-07T10:26:21;31.98;34.76
77052;SHT30;65980;44.898;8.602;2023-05-07T10:29:36;31.29;36.43
77052;SHT30;65980;44.898;8.602;2023-05-07T10:32:47;29.66;39.06
77052;SHT30;65980;44.898;8.602;2023-05-07T10:36:00;29.15;39.15
77052;SHT30;65980;44.898;8.602;2023-05-07T10:39:07;30.87;36.88
77052;SHT30;65980;44.898;8.602;2023-05-07T10:42:13;29.18;39.42
77052;SHT30;65980;44.898;8.602;2023-05-07T10:45:23;26.47;45.11
77052;SHT30;65980;44.898;8.602;2023-05-07T10:48:29;26.48;45.56
77052;SHT30;65980;44.898;8.602;2023-05-07T10:51:39;24.95;48.56
77052;SHT30;65980;44.898;8.602;2023-05-07T10:58:25;26.06;47.12
77052;SHT30;65980;44.898;8.602;2023-05-07T11:01:50;26.12;45.93
77052;SHT30;65980;44.898;8.602;2023-05-07T11:05:18;26.39;45.52
77052;SHT30;65980;44.898;8.602;2023-05-07T11:08:28;26.43;45.34
77052;SHT30;65980;44.898;8.602;2023-05-07T11:11:51;26.78;44.33
77052;SHT30;65980;44.898;8.602;2023-05-07T11:18:11;26.47;43.95
77052;SHT30;65980;44.898;8.602;2023-05-07T11:25:03;25.30;45.78
77052;SHT30;65980;44.898;8.602;2023-05-07T11:28:07;25.98;45.29
77052;SHT30;65980;44.898;8.602;2023-05-07T11:31:20;26.77;45.14
77052;SHT30;65980;44.898;8.602;2023-05-07T11:34:25;27.06;43.27
77052;SHT30;65980;44.898;8.602;2023-05-07T11:37:31;26.65;43.58
77052;SHT30;65980;44.898;8.602;2023-05-07T11:44:14;26.53;43.16
77052;SHT30;65980;44.898;8.602;2023-05-07T11:47:18;26.26;43.81
77052;SHT30;65980;44.898;8.602;2023-05-07T11:50:23;26.02;43.73
77052;SHT30;65980;44.898;8.602;2023-05-07T11:53:27;26.41;43.25
77052;SHT30;65980;44.898;8.602;2023-05-07T11:56:33;26.41;42.78
77052;SHT30;65980;44.898;8.602;2023-05-07T11:59:38;26.27;44.26
77052;SHT30;65980;44.898;8.602;2023-05-07T12:02:45;26.30;44.27
77052;SHT30;65980;44.898;8.602;2023-05-07T12:05:50;26.45;43.78
77052;SHT30;65980;44.898;8.602;2023-05-07T12:08:55;26.03;44.53
77052;SHT30;65980;44.898;8.602;2023-05-07T12:12:03;25.60;45.30
77052;SHT30;65980;44.898;8.602;2023-05-07T12:15:07;25.51;45.66
77052;SHT30;65980;44.898;8.602;2023-05-07T12:18:14;25.36;46.17
77052;SHT30;65980;44.898;8.602;2023-05-07T12:21:19;24.51;47.39
77052;SHT30;65980;44.898;8.602;2023-05-07T12:24:23;24.63;47.44
77052;SHT30;65980;44.898;8.602;2023-05-07T12:27:28;24.96;47.31
77052;SHT30;65980;44.898;8.602;2023-05-07T12:30:39;24.75;47.47
77052;SHT30;65980;44.898;8.602;2023-05-07T12:33:44;24.51;48.23
77052;SHT30;65980;44.898;8.602;2023-05-07T12:36:48;24.78;47.81
77052;SHT30;65980;44.898;8.602;2023-05-07T12:40:05;24.48;48.40
77052;SHT30;65980;44.898;8.602;2023-05-07T12:43:18;24.61;48.12
77052;SHT30;65980;44.898;8.602;2023-05-07T12:46:23;24.45;48.65
77052;SHT30;65980;44.898;8.602;2023-05-07T12:49:27;24.63;48.64
77052;SHT30;65980;44.898;8.602;2023-05-07T12:52:32;24.69;48.49
77052;SHT30;65980;44.898;8.602;2023-05-07T12:55:40;24.51;48.88
77052;SHT30;65980;44.898;8.602;2023-05-07T12:58:44;24.68;48.35
77052;SHT30;65980;44.898;8.602;2023-05-07T13:01:49;24.76;48.02
77052;SHT30;65980;44.898;8.602;2023-05-07T13:04:54;24.75;48.01
77052;SHT30;65980;44.898;8.602;2023-05-07T13:07:59;24.55;48.27
77052;SHT30;65980;44.898;8.602;2023-05-07T13:11:03;24.54;48.49
77052;SHT30;65980;44.898;8.602;2023-05-07T13:14:07;24.43;48.52
77052;SHT30;65980;44.898;8.602;2023-05-07T13:17:12;24.58;48.24
77052;SHT30;65980;44.898;8.602;2023-05-07T13:20:16;24.63;48.24
77052;SHT30;65980;44.898;8.602;2023-05-07T13:23:20;24.75;48.65
77052;SHT30;65980;44.898;8.602;2023-05-07T13:26:25;24.48;49.15
77052;SHT30;65980;44.898;8.602;2023-05-07T13:29:29;24.36;49.52
77052;SHT30;65980;44.898;8.602;2023-05-07T13:32:34;24.41;49.66
77052;SHT30;65980;44.898;8.602;2023-05-07T13:35:39;24.45;49.48
77052;SHT30;65980;44.898;8.602;2023-05-07T13:38:43;24.67;49.16
77052;SHT30;65980;44.898;8.602;2023-05-07T13:41:47;24.89;48.66
77052;SHT30;65980;44.898;8.602;2023-05-07T13:44:51;25.48;47.97
77052;SHT30;65980;44.898;8.602;2023-05-07T13:47:55;25.90;46.07
77052;SHT30;65980;44.898;8.602;2023-05-07T13:51:00;26.29;45.31
77052;SHT30;65980;44.898;8.602;2023-05-07T13:54:03;26.30;45.61
77052;SHT30;65980;44.898;8.602;2023-05-07T13:57:08;26.23;46.58
77052;SHT30;65980;44.898;8.602;2023-05-07T14:00:12;26.60;45.18
77052;SHT30;65980;44.898;8.602;2023-05-07T14:03:18;26.29;40.55
77052;SHT30;65980;44.898;8.602;2023-05-07T14:06:24;25.96;39.18
77052;SHT30;65980;44.898;8.602;2023-05-07T14:09:35;26.17;37.80
77052;SHT30;65980;44.898;8.602;2023-05-07T14:12:39;26.03;39.26
77052;SHT30;65980;44.898;8.602;2023-05-07T14:15:43;25.71;36.43
77052;SHT30;65980;44.898;8.602;2023-05-07T14:18:49;25.44;37.20
77052;SHT30;65980;44.898;8.602;2023-05-07T14:21:54;25.54;37.81
77052;SHT30;65980;44.898;8.602;2023-05-07T14:24:58;25.79;35.48
77052;SHT30;65980;44.898;8.602;2023-05-07T14:28:03;26.10;35.04
77052;SHT30;65980;44.898;8.602;2023-05-07T14:31:08;25.90;34.60
77052;SHT30;65980;44.898;8.602;2023-05-07T14:34:12;25.43;33.23
77052;SHT30;65980;44.898;8.602;2023-05-07T14:37:16;25.90;33.28
77052;SHT30;65980;44.898;8.602;2023-05-07T14:40:19;25.75;32.51
77052;SHT30;65980;44.898;8.602;2023-05-07T14:43:24;25.93;32.65
77052;SHT30;65980;44.898;8.602;2023-05-07T14:46:29;25.84;32.15
77052;SHT30;65980;44.898;8.602;2023-05-07T14:49:34;25.90;32.35
77052;SHT30;65980;44.898;8.602;2023-05-07T14:52:38;25.89;31.98
77052;SHT30;65980;44.898;8.602;2023-05-07T14:55:45;25.95;31.32
77052;SHT30;65980;44.898;8.602;2023-05-07T14:58:49;26.03;32.04
77052;SHT30;65980;44.898;8.602;2023-05-07T15:01:54;25.98;32.28
77052;SHT30;65980;44.898;8.602;2023-05-07T15:04:58;26.20;32.04
77052;SHT30;65980;44.898;8.602;2023-05-07T15:08:03;26.22;32.27
77052;SHT30;65980;44.898;8.602;2023-05-07T15:11:06;26.34;32.31
77052;SHT30;65980;44.898;8.602;2023-05-07T15:14:11;26.26;31.97
77052;SHT30;65980;44.898;8.602;2023-05-07T15:17:15;26.36;32.85
77052;SHT30;65980;44.898;8.602;2023-05-07T15:20:19;26.41;32.60
77052;SHT30;65980;44.898;8.602;2023-05-07T15:23:24;26.25;33.76
77052;SHT30;65980;44.898;8.602;2023-05-07T15:26:27;26.03;33.41
77052;SHT30;65980;44.898;8.602;2023-05-07T15:29:32;25.90;33.39
77052;SHT30;65980;44.898;8.602;2023-05-07T15:32:38;25.75;33.18
77052;SHT30;65980;44.898;8.602;2023-05-07T15:35:43;25.30;33.99
77052;SHT30;65980;44.898;8.602;2023-05-07T15:38:47;25.27;34.37
77052;SHT30;65980;44.898;8.602;2023-05-07T15:41:51;25.26;34.53
77052;SHT30;65980;44.898;8.602;2023-05-07T15:44:56;25.20;35.24
77052;SHT30;65980;44.898;8.602;2023-05-07T15:47:59;25.17;36.00
77052;SHT30;65980;44.898;8.602;2023-05-07T15:51:04;25.22;36.19
77052;SHT30;65980;44.898;8.602;2023-05-07T15:54:10;25.12;36.77
77052;SHT30;65980;44.898;8.602;2023-05-07T15:57:20;25.00;37.36
77052;SHT30;65980;44.898;8.602;2023-05-07T16:00:26;24.86;36.29
77052;SHT30;65980;44.898;8.602;2023-05-07T16:03:30;24.64;35.87
77052;SHT30;65980;44.898;8.602;2023-05-07T16:06:35;24.43;35.73
77052;SHT30;65980;44.898;8.602;2023-05-07T16:09:39;24.21;35.68
77052;SHT30;65980;44.898;8.602;2023-05-07T16:12:43;24.00;36.53
77052;SHT30;65980;44.898;8.602;2023-05-07T16:15:48;23.98;35.93
77052;SHT30;65980;44.898;8.602;2023-05-07T16:18:53;24.00;35.37
77052;SHT30;65980;44.898;8.602;2023-05-07T16:21:58;23.86;35.52
77052;SHT30;65980;44.898;8.602;2023-05-07T16:25:02;23.65;35.49
77052;SHT30;65980;44.898;8.602;2023-05-07T16:28:07;23.57;35.56
77052;SHT30;65980;44.898;8.602;2023-05-07T16:31:14;23.48;35.74
77052;SHT30;65980;44.898;8.602;2023-05-07T16:34:18;23.43;35.81
77052;SHT30;65980;44.898;8.602;2023-05-07T16:37:23;23.16;36.47
77052;SHT30;65980;44.898;8.602;2023-05-07T16:40:27;23.09;36.73
77052;SHT30;65980;44.898;8.602;2023-05-07T16:43:32;23.19;36.32
77052;SHT30;65980;44.898;8.602;2023-05-07T16:46:35;22.95;36.50
77052;SHT30;65980;44.898;8.602;2023-05-07T16:49:40;22.99;36.69
77052;SHT30;65980;44.898;8.602;2023-05-07T16:52:45;22.77;36.94
77052;SHT30;65980;44.898;8.602;2023-05-07T16:55:48;22.81;36.93
77052;SHT30;65980;44.898;8.602;2023-05-07T16:58:52;22.65;38.04
77052;SHT30;65980;44.898;8.602;2023-05-07T17:01:57;22.66;37.30
77052;SHT30;65980;44.898;8.602;2023-05-07T17:05:00;22.73;37.14
77052;SHT30;65980;44.898;8.602;2023-05-07T17:08:05;22.73;37.81
77052;SHT30;65980;44.898;8.602;2023-05-07T17:11:09;22.55;37.59
77052;SHT30;65980;44.898;8.602;2023-05-07T17:14:13;22.61;38.00
77052;SHT30;65980;44.898;8.602;2023-05-07T17:17:17;22.54;38.47
77052;SHT30;65980;44.898;8.602;2023-05-07T17:20:21;22.58;38.61
77052;SHT30;65980;44.898;8.602;2023-05-07T17:23:28;22.54;39.01
77052;SHT30;65980;44.898;8.602;2023-05-07T17:26:33;22.51;39.13
77052;SHT30;65980;44.898;8.602;2023-05-07T17:29:38;22.31;39.84
77052;SHT30;65980;44.898;8.602;2023-05-07T17:32:42;22.30;39.83
77052;SHT30;65980;44.898;8.602;2023-05-07T17:35:46;22.27;40.28
77052;SHT30;65980;44.898;8.602;2023-05-07T17:38:50;22.29;41.13
77052;SHT30;65980;44.898;8.602;2023-05-07T17:41:55;22.30;42.23
77052;SHT30;65980;44.898;8.602;2023-05-07T17:45:00;21.96;43.19
77052;SHT30;65980;44.898;8.602;2023-05-07T17:48:04;22.14;44.63
77052;SHT30;65980;44.898;8.602;2023-05-07T17:51:08;22.06;43.24
77052;SHT30;65980;44.898;8.602;2023-05-07T17:54:13;21.75;44.47
77052;SHT30;65980;44.898;8.602;2023-05-07T17:57:17;21.81;45.35
77052;SHT30;65980;44.898;8.602;2023-05-07T18:00:20;21.63;44.69
77052;SHT30;65980;44.898;8.602;2023-05-07T18:03:24;21.62;44.95
77052;SHT30;65980;44.898;8.602;2023-05-07T18:06:29;21.62;46.66
77052;SHT30;65980;44.898;8.602;2023-05-07T18:09:34;21.55;45.10
77052;SHT30;65980;44.898;8.602;2023-05-07T18:12:41;21.54;44.46
77052;SHT30;65980;44.898;8.602;2023-05-07T18:15:45;21.69;43.62
77052;SHT30;65980;44.898;8.602;2023-05-07T18:18:50;21.75;42.70
77052;SHT30;65980;44.898;8.602;2023-05-07T18:21:54;21.63;42.75
77052;SHT30;65980;44.898;8.602;2023-05-07T18:25:01;21.54;44.01
77052;SHT30;65980;44.898;8.602;2023-05-07T18:28:07;21.51;43.91
77052;SHT30;65980;44.898;8.602;2023-05-07T18:31:11;21.52;44.02
77052;SHT30;65980;44.898;8.602;2023-05-07T18:34:15;21.62;42.39
77052;SHT30;65980;44.898;8.602;2023-05-07T18:37:19;21.54;42.34
77052;SHT30;65980;44.898;8.602;2023-05-07T18:40:23;21.47;42.38
77052;SHT30;65980;44.898;8.602;2023-05-07T18:43:27;21.45;42.56
77052;SHT30;65980;44.898;8.602;2023-05-07T18:46:31;21.41;42.93
77052;SHT30;65980;44.898;8.602;2023-05-07T18:49:35;21.38;43.36
77052;SHT30;65980;44.898;8.602;2023-05-07T18:52:39;21.34;43.69
77052;SHT30;65980;44.898;8.602;2023-05-07T18:55:47;21.26;43.73
77052;SHT30;65980;44.898;8.602;2023-05-07T18:58:51;21.26;43.94
77052;SHT30;65980;44.898;8.602;2023-05-07T19:01:55;21.07;44.07
77052;SHT30;65980;44.898;8.602;2023-05-07T19:04:59;21.07;44.32
77052;SHT30;65980;44.898;8.602;2023-05-07T19:08:03;20.55;45.76
77052;SHT30;65980;44.898;8.602;2023-05-07T19:11:08;20.37;45.84
77052;SHT30;65980;44.898;8.602;2023-05-07T19:14:13;20.27;46.12
77052;SHT30;65980;44.898;8.602;2023-05-07T19:17:17;20.35;45.80
77052;SHT30;65980;44.898;8.602;2023-05-07T19:20:21;20.24;45.88
77052;SHT30;65980;44.898;8.602;2023-05-07T19:23:26;20.25;45.90
77052;SHT30;65980;44.898;8.602;2023-05-07T19:26:30;20.17;47.39
77052;SHT30;65980;44.898;8.602;2023-05-07T19:29:34;20.28;46.89
77052;SHT30;65980;44.898;8.602;2023-05-07T19:32:38;20.25;46.98
77052;SHT30;65980;44.898;8.602;2023-05-07T19:35:44;20.32;46.76
77052;SHT30;65980;44.898;8.602;2023-05-07T19:38:49;20.37;47.10
77052;SHT30;65980;44.898;8.602;2023-05-07T19:41:55;20.07;47.70
77052;SHT30;65980;44.898;8.602;2023-05-07T19:44:59;20.10;47.98